createdAt,value
2023-05-14T00:00:20.596Z,100948.28
2023-05-14T00:03:09.244Z,100949.86
2023-05-14T00:05:37.686Z,100949.52
2023-05-14T00:08:06.353Z,100947.73
2023-05-14T00:11:38.462Z,100948.27
2023-05-14T00:15:28.144Z,100945.80
2023-05-14T00:19:17.919Z,100937.20
2023-05-14T00:23:07.621Z,100933.18
2023-05-14T00:26:57.530Z,100930.56
2023-05-14T00:46:26.162Z,100925.79
2023-05-14T00:50:15.624Z,100923.34
2023-05-14T00:54:05.235Z,100920.89
2023-05-14T01:09:21.375Z,100912.71
2023-05-14T01:13:16.414Z,100916.40
2023-05-14T01:17:05.768Z,100918.67
2023-05-14T01:20:55.072Z,100919.55
2023-05-14T01:24:44.519Z,100915.17
2023-05-14T01:28:37.174Z,100916.73
2023-05-14T01:48:04.409Z,100914.21
2023-05-14T01:51:30.698Z,100910.33
2023-05-14T01:55:12.641Z,100908.05
2023-05-14T01:59:02.306Z,100907.31
2023-05-14T02:02:14.274Z,100903.09
2023-05-14T02:06:03.596Z,100901.13
2023-05-14T02:47:33.108Z,100875.33
2023-05-14T02:51:22.403Z,100870.89
2023-05-14T02:55:04.629Z,100870.84
2023-05-14T02:58:54.418Z,100866.95
2023-05-14T03:18:23.366Z,100867.65
2023-05-14T03:22:12.633Z,100871.25
2023-05-14T03:25:54.448Z,100865.42
2023-05-14T03:37:34.809Z,100866.27
2023-05-14T03:41:17.684Z,100865.73
2023-05-14T03:44:59.877Z,100866.25
2023-05-14T03:48:50.346Z,100864.89
2023-05-14T03:52:40.584Z,100867.92
2023-05-14T03:56:16.696Z,100866.05
2023-05-14T04:11:58.331Z,100862.08
2023-05-14T04:15:47.934Z,100862.45
2023-05-14T04:31:07.419Z,100855.73
2023-05-14T04:34:56.637Z,100856.09
2023-05-14T04:38:46.019Z,100855.60
2023-05-14T04:54:27.661Z,100844.65
2023-05-14T04:58:16.996Z,100836.98
2023-05-14T05:02:06.025Z,100839.50
2023-05-14T05:05:55.425Z,100839.64
2023-05-14T05:09:44.934Z,100840.16
2023-05-14T05:25:26.662Z,100845.95
2023-05-14T05:29:08.990Z,100844.19
2023-05-14T05:32:58.732Z,100832.30
2023-05-14T05:36:43.035Z,100837.26
2023-05-14T05:55:54.100Z,100824.89
2023-05-14T05:59:23.061Z,100825.83
2023-05-14T06:03:12.753Z,100826.72
2023-05-14T06:10:10.534Z,100815.95
2023-05-14T06:14:28.227Z,100811.38
2023-05-14T06:18:17.739Z,100817.25
2023-05-14T06:22:07.267Z,100818.30
2023-05-14T06:44:44.427Z,100820.98
2023-05-14T06:48:33.768Z,100818.78
2023-05-14T06:52:02.795Z,100815.95
2023-05-14T07:03:55.470Z,100815.64
2023-05-14T07:07:44.868Z,100812.80
2023-05-14T07:11:15.061Z,100813.66
2023-05-14T07:26:54.276Z,100805.16
2023-05-14T07:30:23.530Z,100802.77
2023-05-14T07:34:13.187Z,100799.11
2023-05-14T07:39:35.112Z,100792.08
2023-05-14T07:42:41.686Z,100789.05
2023-05-14T07:46:32.852Z,100785.16
2023-05-14T08:12:54.213Z,100751.02
2023-05-14T08:16:44.492Z,100746.94
2023-05-14T08:32:23.327Z,100743.13
2023-05-14T08:36:13.495Z,100738.05
2023-05-14T08:40:02.993Z,100734.04
2023-05-14T08:44:31.822Z,100737.91
2023-05-14T08:48:22.264Z,100727.46
2023-05-14T09:03:42.760Z,100726.45
2023-05-14T09:07:28.043Z,100727.61
2023-05-14T09:11:16.876Z,100719.86
2023-05-14T09:43:43.894Z,100677.70
2023-05-14T09:46:12.361Z,100675.56
2023-05-14T09:48:41.862Z,100673.44
2023-05-14T09:51:11.947Z,100671.28
2023-05-14T09:53:41.530Z,100670.16
2023-05-14T09:56:10.159Z,100666.91
2023-05-14T09:58:39.155Z,100664.98
2023-05-14T10:01:08.868Z,100655.97
2023-05-14T10:03:40.948Z,100654.17
2023-05-14T10:06:16.459Z,100642.10
2023-05-14T10:08:49.017Z,100641.41
2023-05-14T10:11:28.000Z,100640.13
2023-05-14T10:14:08.825Z,100641.48
2023-05-14T10:16:51.927Z,100633.59
2023-05-14T10:19:25.837Z,100632.14
2023-05-14T10:22:04.910Z,100627.51
2023-05-14T10:24:36.453Z,100627.55
2023-05-14T10:27:05.732Z,100623.23
2023-05-14T10:29:37.042Z,100623.20
2023-05-14T10:32:09.445Z,100625.21
2023-05-14T10:34:48.866Z,100616.21
2023-05-14T10:37:21.527Z,100619.50
2023-05-14T10:39:56.618Z,100616.87
2023-05-14T10:42:27.929Z,100616.08
2023-05-14T10:45:07.536Z,100612.83
2023-05-14T10:47:38.832Z,100611.40
2023-05-14T10:50:09.460Z,100611.34
2023-05-14T10:52:38.061Z,100604.66
2023-05-14T10:55:07.928Z,100600.92
2023-05-14T10:57:38.537Z,100597.52
2023-05-14T11:00:09.219Z,100591.48
2023-05-14T11:02:43.357Z,100592.00
2023-05-14T11:05:17.914Z,100588.25
2023-05-14T11:07:56.177Z,100585.23
2023-05-14T11:10:31.696Z,100581.83
2023-05-14T11:21:27.581Z,100566.91
2023-05-14T12:10:50.949Z,100509.52
2023-05-14T12:13:40.029Z,100506.95
2023-05-14T12:16:33.990Z,100508.69
2023-05-14T12:19:04.077Z,100511.58
2023-05-14T12:21:32.671Z,100511.86
2023-05-14T12:24:01.579Z,100499.73
2023-05-14T12:27:04.757Z,100500.53
2023-05-14T12:30:20.048Z,100498.80
2023-05-14T12:32:54.558Z,100501.09
2023-05-14T12:35:23.524Z,100494.55
2023-05-14T12:37:52.168Z,100492.30
2023-05-14T12:40:20.637Z,100490.73
2023-05-14T12:42:51.782Z,100490.70
2023-05-14T12:45:20.211Z,100483.36
2023-05-14T12:47:48.677Z,100478.52
2023-05-14T12:50:20.327Z,100471.08
2023-05-14T12:52:48.849Z,100464.79
2023-05-14T12:55:17.414Z,100462.92
2023-05-14T12:57:45.891Z,100463.58
2023-05-14T13:00:15.647Z,100460.64
2023-05-14T13:02:44.524Z,100459.50
2023-05-14T13:05:13.085Z,100459.52
2023-05-14T13:07:41.863Z,100453.21
2023-05-14T13:10:10.636Z,100452.65
2023-05-14T13:12:38.943Z,100449.32
2023-05-14T13:15:07.845Z,100448.16
2023-05-14T13:17:38.654Z,100440.07
2023-05-14T13:20:18.248Z,100438.27
2023-05-14T13:22:46.890Z,100431.98
2023-05-14T13:25:15.243Z,100426.58
2023-05-14T13:27:43.586Z,100428.51
2023-05-14T13:30:12.453Z,100429.31
2023-05-14T13:32:42.278Z,100424.58
2023-05-14T13:35:11.697Z,100421.77
2023-05-14T13:37:40.041Z,100419.84
2023-05-14T13:40:09.570Z,100418.56
2023-05-14T13:42:39.891Z,100421.23
2023-05-14T13:45:08.744Z,100415.98
2023-05-14T13:47:37.173Z,100411.95
2023-05-14T13:50:05.975Z,100406.13
2023-05-14T13:52:34.404Z,100412.98
2023-05-14T13:55:02.750Z,100404.60
2023-05-14T13:57:31.580Z,100403.48
2023-05-14T14:00:02.307Z,100399.96
2023-05-14T14:02:34.187Z,100402.48
2023-05-14T14:05:06.378Z,100395.93
2023-05-14T14:07:34.905Z,100397.27
2023-05-14T14:10:03.307Z,100399.23
2023-05-14T14:12:31.930Z,100395.14
2023-05-14T14:15:01.296Z,100400.80
2023-05-14T14:17:29.580Z,100390.48
2023-05-14T14:19:57.908Z,100387.60
2023-05-14T14:22:28.203Z,100382.54
2023-05-14T14:24:57.970Z,100379.77
2023-05-14T14:27:26.514Z,100378.45
2023-05-14T14:29:56.945Z,100379.58
2023-05-14T14:32:25.296Z,100377.64
2023-05-14T14:34:53.836Z,100377.23
2023-05-14T14:37:23.145Z,100378.45
2023-05-14T14:39:51.826Z,100379.92
2023-05-14T14:42:20.294Z,100371.81
2023-05-14T14:44:48.520Z,100372.23
2023-05-14T14:47:17.106Z,100370.02
2023-05-14T14:49:45.559Z,100370.26
2023-05-14T14:52:14.129Z,100369.75
2023-05-14T14:54:42.645Z,100367.17
2023-05-14T14:57:12.257Z,100363.84
2023-05-14T14:59:40.850Z,100364.57
2023-05-14T15:02:09.901Z,100365.56
2023-05-14T15:04:39.064Z,100363.16
2023-05-14T15:07:07.763Z,100360.31
2023-05-14T15:09:39.672Z,100359.39
2023-05-14T15:12:09.803Z,100351.17
2023-05-14T15:14:40.094Z,100353.30
2023-05-14T15:17:08.752Z,100349.55
2023-05-14T15:19:37.083Z,100350.10
2023-05-14T15:22:05.620Z,100344.08
2023-05-14T15:24:34.010Z,100341.76
2023-05-14T15:27:02.313Z,100336.27
2023-05-14T15:30:06.675Z,100340.02
2023-05-14T15:32:35.851Z,100335.43
2023-05-14T15:35:09.337Z,100329.34
2023-05-14T15:37:50.559Z,100333.81
2023-05-14T15:40:19.351Z,100333.48
2023-05-14T15:43:17.354Z,100331.27
2023-05-14T15:45:49.460Z,100328.32
2023-05-14T15:48:18.274Z,100328.06
2023-05-14T15:50:51.186Z,100324.92
2023-05-14T15:53:29.426Z,100323.05
2023-05-14T15:55:59.816Z,100330.50
2023-05-14T15:58:29.040Z,100322.98
2023-05-14T16:01:37.867Z,100321.28
2023-05-14T16:23:03.283Z,100307.77
2023-05-14T16:25:47.634Z,100302.58
2023-05-14T16:31:36.157Z,100297.36
2023-05-14T16:41:58.110Z,100277.64
2023-05-14T16:44:58.556Z,100285.23
2023-05-14T16:48:54.613Z,100281.71
2023-05-14T16:52:07.715Z,100271.02
2023-05-14T16:55:02.821Z,100278.63
2023-05-14T16:58:05.720Z,100272.22
2023-05-14T17:00:34.316Z,100273.46
2023-05-14T17:03:03.361Z,100275.27
2023-05-14T17:05:34.916Z,100272.39
2023-05-14T17:08:05.140Z,100273.05
2023-05-14T17:11:28.734Z,100269.48
2023-05-14T17:14:50.875Z,100269.42
